Time;durP1;ratioP1;P1;durP2;ratioP2;P2;SDS_P1;SDS_P2;PMS_P1;PMS_P2;Temp;Humidity;BMP_temperature;BMP_pressure;BME280_temperature;BME280_humidity;BME280_pressure;Samples;Min_cycle;Max_cycle;Signal;HPM_P1;HPM_P2
2021/06/14 00:00:15;;;;;;;28.33;26.60;;;15.80;70.00;;;;;;4966638;28;20474;-75
2021/06/14 00:02:43;;;;;;;27.90;26.40;;;15.70;69.90;;;;;;4969873;28;20490;-75
2021/06/14 00:05:14;;;;;;;28.50;26.80;;;15.50;70.80;;;;;;5003741;28;20473;-75
2021/06/14 00:07:43;;;;;;;28.30;26.60;;;15.60;70.70;;;;;;4960772;28;20581;-75
2021/06/14 00:10:13;;;;;;;27.43;25.83;;;15.50;70.90;;;;;;4961111;28;20479;-75
2021/06/14 00:12:41;;;;;;;28.30;26.30;;;15.50;71.00;;;;;;4960703;28;20467;-75
2021/06/14 00:15:10;;;;;;;27.97;26.40;;;15.50;71.20;;;;;;4962077;28;20469;-75
2021/06/14 00:17:37;;;;;;;29.30;27.30;;;15.50;70.90;;;;;;4967560;28;20463;-75
2021/06/14 00:20:07;;;;;;;27.90;26.30;;;15.50;70.70;;;;;;4971674;28;20942;-75
2021/06/14 00:22:34;;;;;;;29.00;26.90;;;15.50;71.10;;;;;;4960097;28;20545;-75
2021/06/14 00:25:02;;;;;;;27.87;26.20;;;15.30;71.80;;;;;;4978251;28;20998;-75
2021/06/14 00:27:29;;;;;;;27.73;26.20;;;15.30;72.00;;;;;;4962873;28;20972;-75
2021/06/14 00:29:56;;;;;;;28.00;26.17;;;15.20;72.60;;;;;;4976903;28;20986;-75
2021/06/14 00:32:23;;;;;;;27.53;25.83;;;15.20;72.50;;;;;;5007829;28;20466;-75
2021/06/14 00:34:50;;;;;;;27.40;26.00;;;15.10;72.50;;;;;;4961267;28;21002;-75
2021/06/14 00:37:17;;;;;;;28.30;26.60;;;15.10;72.50;;;;;;4959353;28;21018;-75
2021/06/14 00:39:45;;;;;;;27.57;25.97;;;15.10;72.90;;;;;;4955747;28;20458;-75
2021/06/14 00:42:13;;;;;;;27.90;26.20;;;15.00;72.90;;;;;;4960130;28;20503;-75
2021/06/14 00:44:41;;;;;;;28.23;26.43;;;15.10;72.70;;;;;;4961943;28;20844;-75
2021/06/14 00:47:08;;;;;;;28.00;26.40;;;15.00;73.10;;;;;;4960838;28;20478;-75
2021/06/14 00:49:35;;;;;;;27.70;26.10;;;14.90;73.30;;;;;;4961423;28;20454;-75
2021/06/14 00:52:02;;;;;;;29.00;27.10;;;14.90;73.50;;;;;;4960673;28;20463;-75
2021/06/14 00:54:29;;;;;;;27.80;26.10;;;14.90;73.50;;;;;;4960438;28;21055;-75
2021/06/14 00:56:56;;;;;;;27.90;26.27;;;14.80;73.60;;;;;;4960043;28;20490;-75
2021/06/14 00:59:25;;;;;;;27.43;25.83;;;14.80;73.70;;;;;;4960984;28;21051;-75
2021/06/14 01:01:52;;;;;;;28.73;27.03;;;14.80;73.80;;;;;;5022829;28;20541;-75
2021/06/14 01:04:19;;;;;;;27.10;25.60;;;14.90;73.70;;;;;;4962170;28;20474;-75
2021/06/14 01:06:49;;;;;;;27.20;25.63;;;14.90;73.70;;;;;;4960145;28;20568;-75
2021/06/14 01:09:16;;;;;;;28.30;26.53;;;14.80;73.80;;;;;;4962013;28;20451;-75
2021/06/14 01:11:49;;;;;;;29.00;26.93;;;14.80;73.90;;;;;;4962049;28;20487;-75
2021/06/14 01:14:24;;;;;;;27.60;26.10;;;14.80;74.10;;;;;;4961303;28;20474;-75
2021/06/14 01:16:59;;;;;;;27.03;25.40;;;14.80;74.10;;;;;;4960201;28;20490;-75
2021/06/14 01:19:54;;;;;;;28.50;26.60;;;14.70;74.20;;;;;;4962221;28;20462;-75
2021/06/14 01:22:40;;;;;;;27.43;25.93;;;14.70;74.30;;;;;;4958601;28;20459;-75
2021/06/14 01:25:10;;;;;;;28.20;26.50;;;14.60;74.60;;;;;;4961000;28;20454;-75
2021/06/14 01:27:41;;;;;;;28.50;26.70;;;14.50;75.00;;;;;;4960570;28;20469;-75
2021/06/14 01:30:11;;;;;;;28.37;26.57;;;14.30;75.60;;;;;;4960187;28;20545;-75
2021/06/14 01:32:40;;;;;;;27.87;26.37;;;14.30;75.80;;;;;;4963013;28;20469;-75
2021/06/14 01:35:10;;;;;;;27.57;26.10;;;14.30;75.70;;;;;;4960128;28;20608;-75
2021/06/14 01:37:42;;;;;;;27.80;26.20;;;14.40;75.80;;;;;;4959282;28;20601;-74
2021/06/14 01:40:11;;;;;;;27.33;25.73;;;14.30;75.90;;;;;;4992949;28;21274;-75
2021/06/14 01:42:41;;;;;;;27.70;26.10;;;14.30;75.90;;;;;;5003781;28;20773;-75
2021/06/14 01:45:09;;;;;;;27.87;26.27;;;14.30;76.20;;;;;;4982190;28;20467;-74
2021/06/14 01:47:37;;;;;;;28.60;26.90;;;14.30;76.00;;;;;;4960166;28;20451;-74
2021/06/14 01:50:05;;;;;;;27.90;26.20;;;14.30;75.70;;;;;;4960136;28;20586;-75
2021/06/14 01:52:33;;;;;;;27.17;25.57;;;14.30;76.00;;;;;;4963580;28;20461;-75
2021/06/14 01:55:00;;;;;;;27.60;26.03;;;14.20;76.40;;;;;;4964014;28;20488;-75
2021/06/14 01:57:27;;;;;;;27.73;26.10;;;14.20;76.30;;;;;;4963530;28;20486;-74
2021/06/14 01:59:57;;;;;;;28.27;26.33;;;14.20;76.40;;;;;;4961778;28;20839;-75
2021/06/14 02:02:24;;;;;;;27.90;26.33;;;14.20;76.50;;;;;;4982664;28;21054;-75
2021/06/14 02:04:52;;;;;;;27.70;26.03;;;14.20;76.50;;;;;;4979804;28;20556;-75
2021/06/14 02:07:20;;;;;;;28.90;27.10;;;14.20;76.40;;;;;;4994592;28;20450;-75
2021/06/14 02:09:47;;;;;;;27.73;26.13;;;14.20;76.40;;;;;;4966573;28;20466;-74
2021/06/14 02:12:15;;;;;;;26.73;25.20;;;14.20;76.40;;;;;;4963697;28;20466;-75
2021/06/14 02:14:43;;;;;;;27.20;25.80;;;14.10;76.70;;;;;;4964104;28;20648;-75
2021/06/14 02:17:13;;;;;;;29.00;26.93;;;14.00;77.10;;;;;;4963488;28;20485;-75
2021/06/14 02:19:41;;;;;;;28.40;26.70;;;14.00;77.10;;;;;;4969919;28;20461;-75
2021/06/14 02:22:10;;;;;;;28.10;26.50;;;13.90;77.40;;;;;;4964217;28;20463;-75
2021/06/14 02:24:37;;;;;;;28.50;26.70;;;13.90;77.50;;;;;;4963531;28;20536;-75
2021/06/14 02:27:04;;;;;;;26.50;25.00;;;13.90;77.40;;;;;;4962787;28;20451;-75
2021/06/14 02:29:32;;;;;;;26.83;25.13;;;14.00;77.40;;;;;;4963090;28;20477;-74
2021/06/14 02:31:59;;;;;;;26.70;25.20;;;13.90;77.60;;;;;;4963930;28;20454;-75
2021/06/14 02:34:28;;;;;;;27.10;25.60;;;14.00;77.50;;;;;;4962266;28;20490;-75
2021/06/14 02:36:56;;;;;;;27.30;25.80;;;14.00;77.60;;;;;;4962979;28;20475;-75
2021/06/14 02:39:26;;;;;;;31.93;30.03;;;13.90;77.70;;;;;;4962474;28;20473;-75
2021/06/14 02:41:54;;;;;;;27.20;25.50;;;13.70;78.30;;;;;;4979611;28;20468;-75
2021/06/14 02:44:23;;;;;;;28.27;26.47;;;13.60;78.70;;;;;;4984951;28;20487;-75
2021/06/14 02:46:55;;;;;;;28.10;26.40;;;13.50;79.10;;;;;;4954578;28;20462;-75
2021/06/14 02:49:23;;;;;;;27.60;25.93;;;13.60;79.10;;;;;;4953977;28;20467;-75
2021/06/14 02:51:52;;;;;;;27.43;25.93;;;13.60;78.90;;;;;;4963696;28;20455;-75
2021/06/14 02:54:24;;;;;;;29.20;27.50;;;13.70;78.70;;;;;;4965002;28;20483;-75
2021/06/14 02:56:55;;;;;;;27.43;25.80;;;13.70;78.90;;;;;;4972528;28;20617;-75
2021/06/14 02:59:23;;;;;;;28.00;26.23;;;13.70;78.90;;;;;;4961295;28;20886;-75
2021/06/14 03:01:51;;;;;;;27.30;25.70;;;13.60;79.40;;;;;;4962893;28;20451;-75
2021/06/14 03:04:18;;;;;;;30.03;28.23;;;13.60;79.20;;;;;;4964084;28;21106;-75
2021/06/14 03:06:47;;;;;;;28.90;27.20;;;13.60;79.00;;;;;;4962361;28;20450;-75
2021/06/14 03:09:16;;;;;;;29.57;27.70;;;13.50;79.30;;;;;;4969947;28;20903;-74
2021/06/14 03:11:45;;;;;;;28.27;26.53;;;13.40;79.60;;;;;;4962585;28;20905;-75
2021/06/14 03:14:13;;;;;;;28.27;26.37;;;13.40;80.00;;;;;;4962061;28;20552;-75
2021/06/14 03:16:42;;;;;;;27.13;25.60;;;13.40;80.20;;;;;;4961877;28;20493;-74
2021/06/14 03:19:10;;;;;;;30.43;28.47;;;13.40;80.00;;;;;;4961795;28;20462;-75
2021/06/14 03:21:38;;;;;;;27.83;26.13;;;13.40;79.90;;;;;;5064364;28;20639;-75
2021/06/14 03:24:06;;;;;;;29.20;27.40;;;13.30;80.30;;;;;;4986173;28;20489;-75
2021/06/14 03:26:39;;;;;;;28.07;26.10;;;13.30;80.20;;;;;;4962073;28;20489;-75
2021/06/14 03:29:07;;;;;;;28.60;26.97;;;13.50;80.00;;;;;;4962279;28;20580;-75
2021/06/14 03:31:34;;;;;;;27.60;26.10;;;13.50;79.70;;;;;;4962493;28;21027;-75
2021/06/14 03:34:01;;;;;;;32.47;30.40;;;13.50;79.60;;;;;;4959869;28;20869;-75
2021/06/14 03:36:31;;;;;;;28.30;26.50;;;13.50;79.80;;;;;;4960456;28;20463;-75
2021/06/14 03:38:59;;;;;;;27.30;25.70;;;13.50;79.90;;;;;;4960283;28;20469;-75
2021/06/14 03:41:27;;;;;;;27.83;26.13;;;13.60;79.90;;;;;;4964460;28;20459;-75
2021/06/14 03:43:55;;;;;;;33.00;31.20;;;13.80;79.30;;;;;;4960653;28;20857;-75
2021/06/14 03:46:22;;;;;;;28.90;27.13;;;14.00;77.90;;;;;;4961853;28;20816;-75
2021/06/14 03:48:49;;;;;;;30.87;28.97;;;14.10;77.50;;;;;;4966324;28;20463;-75
2021/06/14 03:51:16;;;;;;;27.53;26.00;;;14.20;77.70;;;;;;4962196;28;20469;-75
2021/06/14 03:53:56;;;;;;;27.57;25.97;;;14.50;76.80;;;;;;4968574;28;20489;-75
2021/06/14 03:56:23;;;;;;;30.13;28.23;;;15.10;75.00;;;;;;4961710;28;20466;-75
2021/06/14 03:58:51;;;;;;;29.43;27.60;;;15.80;72.70;;;;;;4962474;28;20555;-75
2021/06/14 04:01:19;;;;;;;28.53;26.80;;;16.20;70.30;;;;;;4957813;28;20598;-75
2021/06/14 04:03:58;;;;;;;30.80;28.90;;;16.50;69.30;;;;;;4960694;28;20486;-75
2021/06/14 04:06:25;;;;;;;29.63;27.93;;;16.40;68.90;;;;;;5029253;28;20458;-76
2021/06/14 04:08:52;;;;;;;29.90;28.20;;;15.90;70.40;;;;;;4962922;28;20466;-75
2021/06/14 04:11:19;;;;;;;30.47;28.50;;;15.70;71.60;;;;;;4966226;28;20894;-75
2021/06/14 04:13:48;;;;;;;31.57;29.53;;;15.40;72.50;;;;;;4972125;28;21005;-75
2021/06/14 04:16:15;;;;;;;31.30;29.27;;;15.40;72.80;;;;;;4972886;28;20459;-75
2021/06/14 04:18:44;;;;;;;30.70;28.90;;;15.50;72.80;;;;;;4965358;28;20489;-75
2021/06/14 04:21:11;;;;;;;29.77;27.60;;;15.40;72.60;;;;;;4959408;28;20859;-75
2021/06/14 04:23:38;;;;;;;30.73;28.70;;;15.30;73.00;;;;;;4969879;28;20855;-75
2021/06/14 04:26:05;;;;;;;30.30;28.50;;;15.20;73.30;;;;;;4961838;28;20461;-75
2021/06/14 04:28:32;;;;;;;31.13;28.93;;;15.00;74.00;;;;;;4959870;28;20451;-75
2021/06/14 04:30:59;;;;;;;30.37;28.27;;;15.00;74.30;;;;;;4960754;28;20462;-75
2021/06/14 04:33:26;;;;;;;30.70;28.70;;;15.10;74.30;;;;;;4960554;28;20935;-75
2021/06/14 04:35:54;;;;;;;30.63;28.80;;;15.20;74.30;;;;;;4950735;28;20458;-75
2021/06/14 04:38:21;;;;;;;31.07;29.27;;;15.30;74.10;;;;;;4960126;28;20490;-75
2021/06/14 04:40:48;;;;;;;31.20;29.30;;;15.30;74.00;;;;;;4976737;28;20465;-76
2021/06/14 04:43:15;;;;;;;29.83;28.03;;;15.30;73.60;;;;;;4997007;28;20481;-79
2021/06/14 04:45:42;;;;;;;30.37;28.40;;;15.20;73.90;;;;;;4961583;28;20924;-74
2021/06/14 04:48:09;;;;;;;30.03;28.23;;;15.20;74.20;;;;;;4961638;28;20825;-75
2021/06/14 04:50:36;;;;;;;31.30;29.10;;;15.20;74.50;;;;;;4990619;28;20501;-75
2021/06/14 04:53:04;;;;;;;30.10;28.30;;;15.30;74.50;;;;;;4970285;28;20470;-75
2021/06/14 04:55:31;;;;;;;29.70;27.90;;;15.50;74.10;;;;;;4961379;28;20880;-75
2021/06/14 04:57:58;;;;;;;29.50;27.77;;;15.60;74.10;;;;;;4956833;28;20493;-75
2021/06/14 05:00:25;;;;;;;33.37;31.17;;;15.70;73.90;;;;;;4961742;28;20482;-76
2021/06/14 05:02:52;;;;;;;32.93;31.07;;;15.80;73.60;;;;;;4981012;28;20837;-75
2021/06/14 05:05:19;;;;;;;29.50;27.50;;;15.90;72.90;;;;;;4960628;28;20992;-74
2021/06/14 05:07:46;;;;;;;29.80;27.90;;;15.80;73.00;;;;;;4958927;28;21314;-74
2021/06/14 05:10:14;;;;;;;30.30;28.37;;;15.80;73.60;;;;;;4959660;28;20459;-76
2021/06/14 05:12:41;;;;;;;31.23;29.43;;;15.90;73.40;;;;;;4957983;28;20470;-75
2021/06/14 05:15:12;;;;;;;30.13;28.20;;;16.10;73.10;;;;;;4967726;28;20463;-76
2021/06/14 05:17:40;;;;;;;31.80;29.70;;;16.10;72.70;;;;;;4972093;28;20943;-76
2021/06/14 05:20:08;;;;;;;29.60;27.90;;;16.00;72.70;;;;;;4969468;28;20806;-75
2021/06/14 05:22:35;;;;;;;30.50;28.80;;;16.10;73.00;;;;;;4978153;28;20978;-75
2021/06/14 05:25:01;;;;;;;30.67;28.77;;;16.20;72.50;;;;;;4972083;28;20473;-76
2021/06/14 05:27:30;;;;;;;32.37;30.30;;;16.40;72.00;;;;;;4973169;28;20569;-75
2021/06/14 05:29:57;;;;;;;31.87;29.73;;;16.60;71.40;;;;;;4973643;28;20459;-76
2021/06/14 05:32:24;;;;;;;32.13;29.83;;;16.70;70.40;;;;;;4967824;28;20455;-76
2021/06/14 05:34:51;;;;;;;30.73;28.70;;;16.70;70.10;;;;;;4968165;28;20473;-77
2021/06/14 05:37:17;;;;;;;31.60;29.70;;;16.80;69.70;;;;;;4964691;28;20490;-76
2021/06/14 05:39:44;;;;;;;30.48;28.58;;;16.90;69.20;;;;;;4964537;28;20554;-76
2021/06/14 05:42:12;;;;;;;30.70;28.43;;;16.90;69.10;;;;;;4965617;28;20203;-76
2021/06/14 05:44:40;;;;;;;30.63;28.70;;;17.00;69.00;;;;;;4978950;28;20983;-76
2021/06/14 05:47:07;;;;;;;30.03;28.20;;;17.20;68.00;;;;;;4963787;28;20464;-76
2021/06/14 05:49:34;;;;;;;31.63;29.33;;;17.30;67.50;;;;;;4968725;28;20466;-77
2021/06/14 05:52:01;;;;;;;29.63;27.93;;;17.60;66.80;;;;;;4988983;28;20490;-77
2021/06/14 05:54:28;;;;;;;29.53;27.63;;;17.70;66.20;;;;;;4984100;28;20539;-77
2021/06/14 05:56:55;;;;;;;29.30;27.60;;;17.90;66.00;;;;;;4982597;28;20999;-77
2021/06/14 05:59:22;;;;;;;31.17;29.30;;;18.10;65.10;;;;;;4962812;28;20590;-78
2021/06/14 06:01:50;;;;;;;31.03;29.10;;;18.20;64.50;;;;;;5058941;28;20461;-78
2021/06/14 06:04:19;;;;;;;31.20;29.20;;;18.30;64.20;;;;;;5042276;28;20481;-78
2021/06/14 06:06:46;;;;;;;31.63;29.53;;;18.50;63.90;;;;;;4985666;28;20472;-75
2021/06/14 06:09:13;;;;;;;30.60;28.80;;;18.60;63.30;;;;;;4968788;28;20462;-77
2021/06/14 06:11:49;;;;;;;30.83;28.93;;;18.60;63.20;;;;;;5015657;28;20450;-78
2021/06/14 06:14:16;;;;;;;29.70;27.90;;;18.70;63.10;;;;;;5000541;28;20598;-81
2021/06/14 06:16:47;;;;;;;29.60;27.77;;;18.80;62.40;;;;;;4965665;28;20463;-77
2021/06/14 06:19:16;;;;;;;30.40;28.60;;;18.90;62.30;;;;;;4975790;28;20490;-78
2021/06/14 06:21:42;;;;;;;31.80;29.80;;;18.90;61.70;;;;;;5024759;28;20457;-78
2021/06/14 06:24:10;;;;;;;30.50;28.60;;;18.90;64.50;;;;;;5004515;28;20522;-75
2021/06/14 06:26:37;;;;;;;31.17;29.30;;;19.10;61.40;;;;;;5067661;28;20445;-77
2021/06/14 06:29:07;;;;;;;31.17;29.17;;;19.30;61.30;;;;;;5043055;28;20816;-76
2021/06/14 06:31:34;;;;;;;30.03;28.13;;;19.20;60.30;;;;;;5012971;28;20465;-79
2021/06/14 06:34:01;;;;;;;29.90;28.20;;;19.20;60.50;;;;;;4961559;28;20585;-77
2021/06/14 06:36:29;;;;;;;28.80;27.00;;;19.30;60.40;;;;;;5020768;28;21162;-76
2021/06/14 06:38:56;;;;;;;30.27;28.47;;;19.30;60.30;;;;;;5017292;28;20491;-77
2021/06/14 06:41:24;;;;;;;28.93;27.23;;;19.60;59.60;;;;;;5048793;28;20549;-78
2021/06/14 06:43:51;;;;;;;31.13;29.17;;;19.70;59.10;;;;;;4971143;28;20474;-74
2021/06/14 06:46:18;;;;;;;30.43;28.50;;;19.60;58.70;;;;;;5030040;28;20462;-78
2021/06/14 06:48:45;;;;;;;29.70;27.87;;;19.50;59.00;;;;;;4979956;28;20471;-78
2021/06/14 06:51:15;;;;;;;30.30;28.20;;;19.60;59.30;;;;;;4986363;28;20616;-79
2021/06/14 06:53:43;;;;;;;33.07;30.20;;;19.80;59.30;;;;;;4963131;28;20489;-78
2021/06/14 06:56:10;;;;;;;31.07;28.83;;;20.00;59.20;;;;;;4960595;28;20557;-79
2021/06/14 06:58:37;;;;;;;29.73;28.03;;;20.20;59.00;;;;;;4964302;28;20491;-80
2021/06/14 07:01:04;;;;;;;29.93;28.03;;;20.20;58.00;;;;;;4988000;28;20484;-80
2021/06/14 07:03:31;;;;;;;31.00;29.00;;;20.10;58.70;;;;;;5003837;28;21152;-80
2021/06/14 07:05:58;;;;;;;31.60;29.27;;;20.20;58.30;;;;;;4955083;28;20463;-79
2021/06/14 07:08:25;;;;;;;33.73;30.10;;;20.30;58.50;;;;;;4982041;28;20534;-80
2021/06/14 07:10:53;;;;;;;30.07;28.17;;;20.50;58.70;;;;;;4964408;28;20467;-79
2021/06/14 07:13:20;;;;;;;29.50;27.43;;;20.60;58.40;;;;;;4964345;28;20493;-78
2021/06/14 07:15:47;;;;;;;30.93;28.50;;;20.60;57.60;;;;;;4964292;28;20466;-77
2021/06/14 07:18:14;;;;;;;29.77;27.93;;;20.70;57.90;;;;;;4963821;28;20593;-77
2021/06/14 07:20:41;;;;;;;42.27;28.47;;;20.70;57.60;;;;;;4977328;28;20559;-78
2021/06/14 07:23:08;;;;;;;81.10;35.00;;;20.80;57.90;;;;;;4991332;28;20501;-78
2021/06/14 07:25:35;;;;;;;29.83;27.20;;;21.00;57.40;;;;;;4963307;28;20567;-77
2021/06/14 07:28:04;;;;;;;30.37;28.10;;;21.00;56.80;;;;;;4975389;28;20459;-79
2021/06/14 07:30:32;;;;;;;32.53;29.90;;;21.00;56.20;;;;;;4968481;28;20560;-78
2021/06/14 07:32:59;;;;;;;36.57;29.67;;;21.00;56.40;;;;;;5017059;28;20481;-79
2021/06/14 07:35:29;;;;;;;30.63;27.83;;;21.20;55.90;;;;;;4965881;28;20473;-78
2021/06/14 07:37:56;;;;;;;32.47;29.30;;;21.40;55.70;;;;;;4965764;28;20594;-78
2021/06/14 07:40:27;;;;;;;31.00;27.53;;;21.50;55.40;;;;;;4963532;28;20550;-78
2021/06/14 07:42:54;;;;;;;31.13;28.40;;;21.70;54.80;;;;;;4983308;28;20486;-76
2021/06/14 07:45:24;;;;;;;29.40;27.60;;;21.80;54.40;;;;;;4964011;28;20493;-76
2021/06/14 07:47:51;;;;;;;29.90;27.90;;;21.90;54.20;;;;;;4967439;28;20596;-76
2021/06/14 07:50:18;;;;;;;32.40;30.03;;;22.00;53.70;;;;;;4975412;28;20475;-75
2021/06/14 07:52:45;;;;;;;32.17;29.60;;;22.00;54.40;;;;;;4999636;28;20477;-74
2021/06/14 07:55:13;;;;;;;30.77;28.23;;;22.10;53.90;;;;;;4981187;28;20477;-74
2021/06/14 07:57:41;;;;;;;32.10;29.70;;;22.10;53.90;;;;;;4977842;28;20461;-73
2021/06/14 08:00:10;;;;;;;29.50;27.37;;;22.20;53.20;;;;;;4961053;28;20594;-74
2021/06/14 08:02:40;;;;;;;30.80;28.80;;;22.20;53.70;;;;;;4962703;28;20471;-74
2021/06/14 08:05:08;;;;;;;28.83;27.00;;;22.30;52.80;;;;;;4962792;28;20891;-76
2021/06/14 08:07:35;;;;;;;31.67;29.67;;;22.50;51.70;;;;;;4975684;28;20520;-76
2021/06/14 08:10:05;;;;;;;30.10;28.30;;;22.50;51.90;;;;;;4961562;28;20454;-76
2021/06/14 08:12:33;;;;;;;29.73;27.90;;;22.60;51.50;;;;;;5019688;28;20458;-79
2021/06/14 08:15:00;;;;;;;30.43;28.23;;;22.70;51.30;;;;;;4990042;28;20470;-74
2021/06/14 08:17:29;;;;;;;32.40;29.47;;;22.80;51.60;;;;;;4963593;28;20459;-75
2021/06/14 08:20:00;;;;;;;30.67;28.37;;;22.80;51.60;;;;;;4963683;28;20602;-74
2021/06/14 08:22:37;;;;;;;30.03;28.10;;;22.90;51.70;;;;;;4962827;28;21014;-74
2021/06/14 08:25:04;;;;;;;29.70;27.80;;;22.90;51.60;;;;;;4960861;28;20472;-74
2021/06/14 08:27:33;;;;;;;29.40;27.57;;;23.00;51.50;;;;;;4962778;28;20900;-74
2021/06/14 08:30:00;;;;;;;29.40;27.40;;;23.10;51.80;;;;;;4969923;28;20549;-76
2021/06/14 08:32:27;;;;;;;31.57;29.67;;;23.20;51.80;;;;;;4959597;28;20479;-75
2021/06/14 08:34:54;;;;;;;28.97;27.07;;;23.20;51.80;;;;;;4963028;28;20459;-75
2021/06/14 08:37:23;;;;;;;31.67;29.23;;;23.20;52.20;;;;;;4962216;28;20566;-75
2021/06/14 08:39:50;;;;;;;28.60;26.97;;;23.20;52.50;;;;;;4962236;28;20474;-75
2021/06/14 08:42:17;;;;;;;29.77;27.70;;;23.20;52.50;;;;;;4946765;28;20971;-75
2021/06/14 08:44:45;;;;;;;29.70;27.47;;;23.40;51.90;;;;;;4961861;28;20920;-78
2021/06/14 08:47:13;;;;;;;29.80;27.53;;;23.20;50.50;;;;;;4963313;28;21007;-74
2021/06/14 08:49:42;;;;;;;29.07;27.20;;;23.20;51.20;;;;;;5007279;28;20928;-74
2021/06/14 08:52:09;;;;;;;28.13;26.50;;;23.20;51.20;;;;;;4976017;28;20558;-74
2021/06/14 08:54:42;;;;;;;29.57;27.67;;;23.20;50.90;;;;;;4958138;28;20482;-74
2021/06/14 08:57:10;;;;;;;30.80;28.63;;;23.20;50.70;;;;;;5003773;28;20508;-74
2021/06/14 08:59:38;;;;;;;30.93;28.83;;;23.00;51.00;;;;;;4974491;28;20486;-73
2021/06/14 09:02:06;;;;;;;29.00;27.20;;;22.90;51.30;;;;;;4964830;28;20476;-74
2021/06/14 09:04:33;;;;;;;28.60;26.80;;;22.80;51.40;;;;;;4966056;28;20702;-74
2021/06/14 09:07:01;;;;;;;28.90;27.10;;;23.00;50.40;;;;;;4969912;28;20852;-76
2021/06/14 09:09:29;;;;;;;29.17;27.30;;;23.10;51.00;;;;;;4964126;28;20465;-75
2021/06/14 09:12:01;;;;;;;30.47;28.60;;;23.20;50.00;;;;;;4968143;28;20961;-76
2021/06/14 09:14:31;;;;;;;29.87;27.97;;;23.30;49.30;;;;;;4990933;28;20482;-75
2021/06/14 09:17:03;;;;;;;31.17;29.07;;;23.50;49.40;;;;;;5002133;28;20558;-75
2021/06/14 09:19:34;;;;;;;29.53;27.63;;;23.60;48.30;;;;;;4953364;28;21343;-75
2021/06/14 09:22:16;;;;;;;30.40;28.53;;;23.60;47.30;;;;;;4966012;28;20463;-76
2021/06/14 09:24:59;;;;;;;29.37;27.43;;;23.60;47.60;;;;;;4961917;28;21075;-77
2021/06/14 09:27:32;;;;;;;29.20;27.30;;;23.70;47.50;;;;;;4954653;28;20557;-78
2021/06/14 09:30:11;;;;;;;28.63;26.73;;;23.70;47.40;;;;;;4960492;28;20459;-78
2021/06/14 09:32:49;;;;;;;29.80;28.00;;;24.00;47.00;;;;;;4960818;28;20471;-78
2021/06/14 09:35:16;;;;;;;27.80;26.00;;;23.90;46.60;;;;;;4959981;28;21043;-78
2021/06/14 09:37:43;;;;;;;28.50;26.70;;;24.00;46.00;;;;;;4991964;28;20455;-78
2021/06/14 09:40:12;;;;;;;29.50;27.77;;;23.90;46.70;;;;;;4958464;28;21027;-78
2021/06/14 09:42:40;;;;;;;28.70;27.00;;;24.00;46.70;;;;;;5022076;28;20457;-78
2021/06/14 09:45:09;;;;;;;29.03;27.23;;;24.10;45.70;;;;;;4967179;28;20836;-78
2021/06/14 09:47:36;;;;;;;31.63;29.60;;;24.10;46.70;;;;;;4956925;28;20618;-78
2021/06/14 09:50:06;;;;;;;28.93;27.13;;;24.10;47.10;;;;;;4956369;28;20550;-78
2021/06/14 09:52:32;;;;;;;29.67;27.77;;;24.30;46.10;;;;;;4960571;28;20468;-78
2021/06/14 09:55:08;;;;;;;29.33;27.53;;;24.30;46.70;;;;;;4960617;28;20550;-78
2021/06/14 09:57:35;;;;;;;29.03;27.33;;;24.50;46.20;;;;;;4972414;28;20449;-78
2021/06/14 10:00:12;;;;;;;29.17;27.27;;;24.60;45.90;;;;;;4980859;28;20608;-78
2021/06/14 10:02:40;;;;;;;29.57;27.40;;;24.60;45.50;;;;;;4960870;28;20454;-78
2021/06/14 10:05:16;;;;;;;28.17;26.37;;;24.60;45.50;;;;;;4958630;28;20831;-78
2021/06/14 10:07:47;;;;;;;30.33;28.50;;;24.40;46.10;;;;;;5002475;28;20470;-78
2021/06/14 10:10:22;;;;;;;31.70;29.90;;;24.50;46.70;;;;;;4970335;28;20455;-78
2021/06/14 10:12:50;;;;;;;30.13;28.23;;;24.60;46.70;;;;;;4996971;28;20481;-78
2021/06/14 10:15:28;;;;;;;28.70;26.90;;;24.70;46.40;;;;;;4959112;28;20471;-78
2021/06/14 10:17:56;;;;;;;28.13;26.13;;;24.90;45.80;;;;;;4970907;28;20453;-78
2021/06/14 10:20:25;;;;;;;30.27;28.17;;;24.70;45.70;;;;;;4974058;28;20492;-78
2021/06/14 10:22:53;;;;;;;29.37;27.47;;;24.80;45.70;;;;;;4964991;28;20654;-78
2021/06/14 10:25:22;;;;;;;29.43;27.63;;;24.80;46.50;;;;;;5000374;28;20577;-78
2021/06/14 10:27:49;;;;;;;29.40;27.40;;;24.90;46.30;;;;;;5002982;28;20517;-77
2021/06/14 10:30:21;;;;;;;29.80;27.90;;;25.00;45.90;;;;;;4963318;28;20474;-77
2021/06/14 10:32:49;;;;;;;28.57;26.87;;;25.10;45.90;;;;;;4963439;28;20509;-80
2021/06/14 10:35:18;;;;;;;29.40;27.60;;;25.20;46.30;;;;;;4966174;28;20462;-77
2021/06/14 10:37:47;;;;;;;28.13;26.50;;;25.30;46.20;;;;;;4972065;28;20463;-77
2021/06/14 10:40:16;;;;;;;27.70;26.10;;;25.50;45.90;;;;;;4962242;28;20479;-77
2021/06/14 10:42:46;;;;;;;29.30;27.47;;;25.50;45.10;;;;;;4962337;28;20528;-77
2021/06/14 10:45:18;;;;;;;29.60;27.77;;;25.60;44.90;;;;;;5027932;28;20466;-77
2021/06/14 10:47:48;;;;;;;30.60;28.70;;;25.70;44.50;;;;;;5000027;28;20550;-77
2021/06/14 10:50:19;;;;;;;31.27;29.17;;;25.50;44.00;;;;;;5009845;28;20462;-78
2021/06/14 10:52:47;;;;;;;29.63;27.53;;;25.30;44.20;;;;;;5006138;28;20505;-76
2021/06/14 10:55:17;;;;;;;29.60;27.67;;;25.40;44.60;;;;;;4971374;28;20462;-78
2021/06/14 10:57:44;;;;;;;28.60;26.70;;;25.40;44.70;;;;;;4977208;28;20463;-77
2021/06/14 11:00:26;;;;;;;28.60;26.80;;;25.60;44.00;;;;;;4980736;28;20959;-76
2021/06/14 11:02:59;;;;;;;29.90;28.00;;;25.70;41.70;;;;;;4961784;28;20483;-79
2021/06/14 11:05:35;;;;;;;30.77;28.90;;;25.60;42.20;;;;;;4961770;28;20721;-79
2021/06/14 11:08:13;;;;;;;29.67;27.87;;;25.30;43.50;;;;;;4954268;28;20835;-77
2021/06/14 11:10:40;;;;;;;31.13;28.90;;;25.30;43.90;;;;;;4963565;28;20653;-80
2021/06/14 11:13:12;;;;;;;27.87;26.17;;;25.30;43.90;;;;;;4986024;28;20574;-79
2021/06/14 11:15:41;;;;;;;30.83;28.97;;;25.70;42.60;;;;;;4960522;28;20467;-79
2021/06/14 11:18:20;;;;;;;29.17;27.00;;;25.70;43.20;;;;;;4997564;28;20780;-79
2021/06/14 11:20:47;;;;;;;29.00;27.00;;;25.70;41.70;;;;;;5000948;28;20557;-78
2021/06/14 11:23:20;;;;;;;31.10;29.10;;;25.70;41.30;;;;;;4985290;28;20998;-77
2021/06/14 11:25:47;;;;;;;28.67;26.97;;;25.80;40.80;;;;;;4972901;28;20458;-76
2021/06/14 11:28:31;;;;;;;29.40;27.47;;;25.60;40.60;;;;;;4959149;28;20497;-79
2021/06/14 11:30:58;;;;;;;31.30;29.30;;;25.70;41.70;;;;;;4956725;28;20869;-78
2021/06/14 11:33:28;;;;;;;31.23;29.40;;;25.80;41.90;;;;;;5035862;28;20509;-79
2021/06/14 11:35:55;;;;;;;29.93;27.73;;;25.90;41.50;;;;;;4957278;28;20469;-78
2021/06/14 11:38:24;;;;;;;31.17;29.23;;;26.10;41.50;;;;;;5058986;28;20912;-79
2021/06/14 11:40:53;;;;;;;28.90;27.00;;;26.00;41.90;;;;;;4976785;28;20565;-79
2021/06/14 11:43:21;;;;;;;30.40;28.43;;;26.20;41.60;;;;;;4993215;28;21123;-79
2021/06/14 11:45:50;;;;;;;30.40;28.40;;;26.30;40.20;;;;;;4974740;28;20467;-78
2021/06/14 11:48:23;;;;;;;32.07;29.73;;;26.30;39.20;;;;;;4963766;28;21311;-79
2021/06/14 11:51:02;;;;;;;30.10;28.20;;;26.30;40.10;;;;;;4971199;28;21274;-78
2021/06/14 11:53:29;;;;;;;31.30;29.30;;;26.40;38.40;;;;;;4946807;28;20525;-79
2021/06/14 11:55:58;;;;;;;30.67;28.47;;;26.70;37.90;;;;;;5007269;28;20454;-77
2021/06/14 11:58:33;;;;;;;31.87;29.57;;;26.90;38.20;;;;;;5000548;28;20453;-78
2021/06/14 12:01:05;;;;;;;31.40;29.20;;;26.90;39.50;;;;;;4962821;28;20482;-79
2021/06/14 12:03:32;;;;;;;30.17;28.33;;;27.00;39.00;;;;;;4961337;28;20483;-78
2021/06/14 12:06:00;;;;;;;31.37;29.60;;;27.10;38.50;;;;;;4992616;28;20473;-78
2021/06/14 12:08:29;;;;;;;28.77;26.97;;;27.00;38.30;;;;;;4962720;28;20486;-78
2021/06/14 12:10:57;;;;;;;31.27;29.33;;;26.90;37.60;;;;;;4963464;28;20490;-80
2021/06/14 12:13:24;;;;;;;29.33;27.53;;;27.00;38.50;;;;;;4960151;28;20491;-79
2021/06/14 12:15:53;;;;;;;33.30;31.40;;;27.00;38.90;;;;;;5017201;28;20473;-79
2021/06/14 12:18:21;;;;;;;29.77;27.77;;;26.90;39.40;;;;;;4983558;28;20473;-79
2021/06/14 12:20:53;;;;;;;31.53;29.63;;;27.10;37.00;;;;;;5004575;28;20579;-80
2021/06/14 12:23:24;;;;;;;31.30;29.33;;;27.00;37.50;;;;;;4964263;28;21284;-82
2021/06/14 12:25:52;;;;;;;29.60;27.80;;;26.90;38.20;;;;;;4965863;28;20469;-80
2021/06/14 12:28:22;;;;;;;29.10;27.30;;;27.00;38.40;;;;;;4965685;28;20461;-82
2021/06/14 12:30:52;;;;;;;30.83;28.93;;;27.20;37.40;;;;;;4990627;28;20446;-80
2021/06/14 12:33:26;;;;;;;29.73;27.63;;;27.10;35.50;;;;;;5038492;28;20475;-81
2021/06/14 12:35:54;;;;;;;29.43;27.50;;;27.20;36.00;;;;;;4976394;28;20463;-81